createdAt,value
2017-01-19T00:00:20.743Z,965.75
2017-01-19T00:01:20.751Z,965.66
2017-01-19T00:02:20.760Z,965.69
2017-01-19T00:03:20.767Z,965.74
2017-01-19T00:04:20.777Z,965.74
2017-01-19T00:05:20.886Z,965.69
2017-01-19T00:06:20.794Z,965.73
2017-01-19T00:07:20.803Z,965.69
2017-01-19T00:08:20.813Z,965.65
2017-01-19T00:09:20.822Z,965.63
2017-01-19T00:10:20.829Z,965.71
2017-01-19T00:11:20.839Z,965.71
2017-01-19T00:12:20.850Z,965.67
2017-01-19T00:13:20.856Z,965.67
2017-01-19T00:14:20.865Z,965.65
2017-01-19T00:15:20.874Z,965.66
2017-01-19T00:16:20.883Z,965.71
2017-01-19T00:17:20.893Z,965.68
2017-01-19T00:18:20.900Z,965.7
2017-01-19T00:19:20.909Z,965.71
2017-01-19T00:20:21.018Z,965.64
2017-01-19T00:21:20.926Z,965.66
2017-01-19T00:22:20.936Z,965.66
2017-01-19T00:23:20.943Z,965.68
2017-01-19T00:24:20.952Z,965.64
2017-01-19T00:25:20.961Z,965.69
2017-01-19T00:26:20.969Z,965.66
2017-01-19T00:27:20.978Z,965.63
2017-01-19T00:28:20.986Z,965.62
2017-01-19T00:29:20.996Z,965.69
2017-01-19T00:30:21.004Z,965.6
2017-01-19T00:31:21.013Z,965.67
2017-01-19T00:32:21.024Z,965.69
2017-01-19T00:33:21.030Z,965.67
2017-01-19T00:34:21.088Z,965.71
2017-01-19T00:35:21.046Z,965.72
2017-01-19T00:36:21.056Z,965.78
2017-01-19T00:37:21.064Z,965.77
2017-01-19T00:38:21.074Z,965.76
2017-01-19T00:39:21.132Z,965.77
2017-01-19T00:40:21.091Z,965.8
2017-01-19T00:41:21.100Z,965.81
2017-01-19T00:42:21.108Z,965.84
2017-01-19T00:43:21.117Z,965.88
2017-01-19T00:44:21.176Z,965.9
2017-01-19T00:45:21.134Z,965.86
2017-01-19T00:46:21.143Z,965.79
2017-01-19T00:47:21.152Z,965.85
2017-01-19T00:48:21.160Z,965.76
2017-01-19T00:49:21.220Z,965.91
2017-01-19T00:50:21.178Z,965.8
2017-01-19T00:51:21.186Z,965.79
2017-01-19T00:52:21.195Z,965.81
2017-01-19T00:53:21.203Z,965.78
2017-01-19T00:54:21.361Z,965.81
2017-01-19T00:55:21.221Z,965.84
2017-01-19T00:56:21.230Z,965.8
2017-01-19T00:57:21.239Z,965.78
2017-01-19T00:58:21.247Z,965.8
2017-01-19T00:59:21.257Z,965.82
2017-01-19T01:00:21.264Z,965.81
2017-01-19T01:01:21.274Z,965.84
2017-01-19T01:02:21.283Z,965.82
2017-01-19T01:03:21.291Z,965.83
2017-01-19T01:04:21.300Z,965.86
2017-01-19T01:05:21.308Z,965.91
2017-01-19T01:06:21.317Z,965.84
2017-01-19T01:07:21.326Z,965.79
2017-01-19T01:08:21.335Z,965.87
2017-01-19T01:09:21.343Z,965.84
2017-01-19T01:10:21.352Z,965.84
2017-01-19T01:11:21.361Z,965.88
2017-01-19T01:12:21.370Z,965.86
2017-01-19T01:13:21.378Z,965.89
2017-01-19T01:14:21.387Z,965.92
2017-01-19T01:15:21.396Z,965.9
2017-01-19T01:16:21.454Z,965.91
2017-01-19T01:17:21.412Z,965.91
2017-01-19T01:18:21.422Z,965.84
2017-01-19T01:19:21.431Z,965.91
2017-01-19T01:20:21.440Z,965.89
2017-01-19T01:21:21.498Z,965.9
2017-01-19T01:22:21.457Z,965.92
2017-01-19T01:23:21.465Z,965.89
2017-01-19T01:24:21.473Z,965.9
2017-01-19T01:25:21.483Z,965.92
2017-01-19T01:26:21.542Z,965.91
2017-01-19T01:27:21.500Z,965.89
2017-01-19T01:28:21.509Z,965.89
2017-01-19T01:29:21.518Z,965.87
2017-01-19T01:30:21.527Z,965.87
2017-01-19T01:31:21.535Z,965.84
2017-01-19T01:32:21.543Z,965.9
2017-01-19T01:33:21.553Z,965.84
2017-01-19T01:34:21.562Z,965.85
2017-01-19T01:35:21.570Z,965.87
2017-01-19T01:36:21.578Z,965.87
2017-01-19T01:37:21.588Z,965.87
2017-01-19T01:38:21.595Z,965.93
2017-01-19T01:39:21.605Z,965.91
2017-01-19T01:40:21.613Z,965.83
2017-01-19T01:41:21.623Z,965.95
2017-01-19T01:42:21.731Z,965.86
2017-01-19T01:43:21.640Z,965.87
2017-01-19T01:44:21.650Z,965.91
2017-01-19T01:45:21.659Z,965.88
2017-01-19T01:46:21.669Z,965.89
2017-01-19T01:47:21.678Z,965.9
2017-01-19T01:48:21.687Z,965.94
2017-01-19T01:49:21.695Z,965.93
2017-01-19T01:50:21.705Z,965.94
2017-01-19T01:51:21.714Z,965.98
2017-01-19T01:52:21.723Z,965.99
2017-01-19T01:53:21.732Z,966
2017-01-19T01:54:21.741Z,965.98
2017-01-19T01:55:21.750Z,965.95
2017-01-19T01:56:21.759Z,965.95
2017-01-19T01:57:21.817Z,965.97
2017-01-19T01:58:21.777Z,966.01
2017-01-19T01:59:21.787Z,965.93
2017-01-19T02:00:21.795Z,966.01
2017-01-19T02:01:21.804Z,965.97
2017-01-19T02:02:21.813Z,965.97
2017-01-19T02:03:21.823Z,965.99
2017-01-19T02:04:21.830Z,965.99
2017-01-19T02:05:21.839Z,965.94
2017-01-19T02:06:21.849Z,965.98
2017-01-19T02:07:21.857Z,965.96
2017-01-19T02:08:21.865Z,965.97
2017-01-19T02:09:21.974Z,965.98
2017-01-19T02:10:21.884Z,965.95
2017-01-19T02:11:21.894Z,965.9
2017-01-19T02:12:21.902Z,965.88
2017-01-19T02:13:22.011Z,965.9
2017-01-19T02:14:21.920Z,965.88
2017-01-19T02:15:21.928Z,965.92
2017-01-19T02:16:21.936Z,965.94
2017-01-19T02:17:21.947Z,965.87
2017-01-19T02:18:21.954Z,965.92
2017-01-19T02:19:21.965Z,965.88
2017-01-19T02:20:21.973Z,965.87
2017-01-19T02:21:21.983Z,965.9
2017-01-19T02:22:21.991Z,965.87
2017-01-19T02:23:22.000Z,965.85
2017-01-19T02:24:22.010Z,965.86
2017-01-19T02:25:22.017Z,965.84
2017-01-19T02:26:22.027Z,965.86
2017-01-19T02:27:22.035Z,965.8
2017-01-19T02:28:22.045Z,965.8
2017-01-19T02:29:22.102Z,965.83
2017-01-19T02:30:22.062Z,965.88
2017-01-19T02:31:22.072Z,965.88
2017-01-19T02:32:22.079Z,965.87
2017-01-19T02:33:22.089Z,965.92
2017-01-19T02:34:22.097Z,965.9
2017-01-19T02:35:22.107Z,965.9
2017-01-19T02:36:22.116Z,965.93
2017-01-19T02:37:22.124Z,965.91
2017-01-19T02:38:22.135Z,965.86
2017-01-19T02:39:22.143Z,965.88
2017-01-19T02:40:22.151Z,965.91
2017-01-19T02:41:22.160Z,965.84
2017-01-19T02:42:22.168Z,965.84
2017-01-19T02:43:22.179Z,965.85
2017-01-19T02:44:22.236Z,965.81
2017-01-19T02:45:22.195Z,965.83
2017-01-19T02:46:22.203Z,965.82
2017-01-19T02:47:22.213Z,965.8
2017-01-19T02:48:22.222Z,965.77
2017-01-19T02:49:22.231Z,965.78
2017-01-19T02:50:22.240Z,965.8
2017-01-19T02:51:22.247Z,965.72
2017-01-19T02:52:22.257Z,965.75
2017-01-19T02:53:22.267Z,965.77
2017-01-19T02:54:22.275Z,965.72
2017-01-19T02:55:22.282Z,965.88
2017-01-19T02:56:22.291Z,965.79
2017-01-19T02:57:22.302Z,965.83
2017-01-19T02:58:22.309Z,965.82
2017-01-19T02:59:22.367Z,965.87
2017-01-19T03:00:22.326Z,965.82
2017-01-19T03:01:22.335Z,965.87
2017-01-19T03:02:22.346Z,965.89
2017-01-19T03:03:22.352Z,965.86
2017-01-19T03:04:22.360Z,965.84
2017-01-19T03:05:22.369Z,965.84
2017-01-19T03:06:22.377Z,965.89
2017-01-19T03:07:22.385Z,965.87
2017-01-19T03:08:22.444Z,965.9
2017-01-19T03:09:22.404Z,965.84
2017-01-19T03:10:22.411Z,965.83
2017-01-19T03:11:22.419Z,965.82
2017-01-19T03:12:22.427Z,965.79
2017-01-19T03:13:22.436Z,965.75
2017-01-19T03:14:22.444Z,965.76
2017-01-19T03:15:22.453Z,965.75
2017-01-19T03:16:22.468Z,965.72
2017-01-19T03:17:22.470Z,965.74
2017-01-19T03:18:22.478Z,965.77
2017-01-19T03:19:22.486Z,965.8
2017-01-19T03:20:22.494Z,965.78
2017-01-19T03:21:22.504Z,965.78
2017-01-19T03:22:22.513Z,965.79
2017-01-19T03:23:22.536Z,965.74
2017-01-19T03:24:22.529Z,965.79
2017-01-19T03:25:22.538Z,965.8
2017-01-19T03:26:22.545Z,965.8
2017-01-19T03:27:22.555Z,965.81
2017-01-19T03:28:22.563Z,965.84
2017-01-19T03:29:22.571Z,965.85
2017-01-19T03:30:22.602Z,965.88
2017-01-19T03:31:22.586Z,965.84
2017-01-19T03:32:22.596Z,965.88
2017-01-19T03:33:22.604Z,965.88
2017-01-19T03:34:22.613Z,965.88
2017-01-19T03:35:22.621Z,965.92
2017-01-19T03:36:22.628Z,965.94
2017-01-19T03:37:22.638Z,965.94
2017-01-19T03:38:22.646Z,965.93
2017-01-19T03:39:22.654Z,965.96
2017-01-19T03:40:22.664Z,965.87
2017-01-19T03:41:22.670Z,965.87
2017-01-19T03:42:22.678Z,965.89
2017-01-19T03:43:22.686Z,965.87
2017-01-19T03:44:22.694Z,965.84
2017-01-19T03:45:22.703Z,965.88
2017-01-19T03:46:22.710Z,965.86
2017-01-19T03:47:22.770Z,965.88
2017-01-19T03:48:22.729Z,965.85
2017-01-19T03:49:22.738Z,965.86
2017-01-19T03:50:22.745Z,965.86
2017-01-19T03:51:22.753Z,965.84
2017-01-19T03:52:22.760Z,965.91
2017-01-19T03:53:22.768Z,965.87
2017-01-19T03:54:22.778Z,965.87
2017-01-19T03:55:22.787Z,965.87
2017-01-19T03:56:22.795Z,965.85
2017-01-19T03:57:22.801Z,965.83
2017-01-19T03:58:22.811Z,965.89
2017-01-19T03:59:22.820Z,965.83
2017-01-19T04:00:22.828Z,965.85
2017-01-19T04:01:22.836Z,965.85
2017-01-19T04:02:22.844Z,965.85
2017-01-19T04:03:22.904Z,965.86
2017-01-19T04:04:22.861Z,965.85
2017-01-19T04:05:22.869Z,965.81
2017-01-19T04:06:22.878Z,965.78
2017-01-19T04:07:22.886Z,965.78
2017-01-19T04:08:22.892Z,965.79
2017-01-19T04:09:22.902Z,965.79
2017-01-19T04:10:22.910Z,965.78
2017-01-19T04:11:22.920Z,965.77
2017-01-19T04:12:22.928Z,965.78
2017-01-19T04:13:22.935Z,965.7
2017-01-19T04:14:22.945Z,965.72
2017-01-19T04:15:22.951Z,965.69
2017-01-19T04:16:23.009Z,965.69
2017-01-19T04:17:22.969Z,965.67
2017-01-19T04:18:22.977Z,965.69
2017-01-19T04:19:22.990Z,965.66
2017-01-19T04:20:22.994Z,965.65
2017-01-19T04:21:23.052Z,965.64
2017-01-19T04:22:23.009Z,965.64
2017-01-19T04:23:23.017Z,965.64
2017-01-19T04:24:23.025Z,965.66
2017-01-19T04:25:23.034Z,965.64
2017-01-19T04:26:23.092Z,965.63
2017-01-19T04:27:23.051Z,965.66
2017-01-19T04:28:23.059Z,965.64
2017-01-19T04:29:23.066Z,965.6
2017-01-19T04:30:23.075Z,965.62
2017-01-19T04:31:23.133Z,965.59
2017-01-19T04:32:23.092Z,965.66
2017-01-19T04:33:23.100Z,965.7
2017-01-19T04:34:23.107Z,965.65
2017-01-19T04:35:23.116Z,965.66
2017-01-19T04:36:23.175Z,965.66
2017-01-19T04:37:23.130Z,965.72
2017-01-19T04:38:23.144Z,965.71
2017-01-19T04:39:23.148Z,965.73
2017-01-19T04:40:23.157Z,965.67
2017-01-19T04:41:23.163Z,965.67
2017-01-19T04:42:23.223Z,965.66
2017-01-19T04:43:23.181Z,965.65
2017-01-19T04:44:23.189Z,965.63
2017-01-19T04:45:23.197Z,965.67
2017-01-19T04:46:23.204Z,965.63
2017-01-19T04:47:23.262Z,965.6
2017-01-19T04:48:23.221Z,965.59
2017-01-19T04:49:23.230Z,965.6
2017-01-19T04:50:23.238Z,965.59
2017-01-19T04:51:23.246Z,965.54
2017-01-19T04:52:23.254Z,965.61
2017-01-19T04:53:23.263Z,965.61
2017-01-19T04:54:23.271Z,965.58
2017-01-19T04:55:23.280Z,965.63
2017-01-19T04:56:23.286Z,965.63
2017-01-19T04:57:23.296Z,965.63
2017-01-19T04:58:23.302Z,965.65
2017-01-19T04:59:23.309Z,965.64
2017-01-19T05:00:23.322Z,965.61
2017-01-19T05:01:23.325Z,965.62
2017-01-19T05:02:23.335Z,965.64
2017-01-19T05:03:23.340Z,965.68
2017-01-19T05:04:23.349Z,965.68
2017-01-19T05:05:23.357Z,965.66
2017-01-19T05:06:23.372Z,965.73
2017-01-19T05:07:23.371Z,965.66
2017-01-19T05:08:23.379Z,965.62
2017-01-19T05:09:23.388Z,965.66
2017-01-19T05:10:23.394Z,965.66
2017-01-19T05:11:23.402Z,965.67
2017-01-19T05:12:23.409Z,965.67
2017-01-19T05:13:23.418Z,965.67
2017-01-19T05:14:23.427Z,965.67
2017-01-19T05:15:23.434Z,965.63
2017-01-19T05:16:23.440Z,965.66
2017-01-19T05:17:23.448Z,965.66
2017-01-19T05:18:23.456Z,965.68
2017-01-19T05:19:23.463Z,965.67
2017-01-19T05:20:23.472Z,965.67
2017-01-19T05:21:23.491Z,965.66
2017-01-19T05:22:23.487Z,965.67
2017-01-19T05:23:23.493Z,965.66
2017-01-19T05:24:23.502Z,965.65
2017-01-19T05:25:23.508Z,965.67
2017-01-19T05:26:23.517Z,965.67
2017-01-19T05:27:23.525Z,965.64
2017-01-19T05:28:23.532Z,965.63
2017-01-19T05:29:23.541Z,965.63
2017-01-19T05:30:23.548Z,965.66
2017-01-19T05:31:23.556Z,965.65
2017-01-19T05:32:23.562Z,965.61
2017-01-19T05:33:23.571Z,965.63
2017-01-19T05:34:23.579Z,965.65
2017-01-19T05:35:23.588Z,965.65
2017-01-19T05:36:23.595Z,965.66
2017-01-19T05:37:23.604Z,965.63
2017-01-19T05:38:23.611Z,965.65
2017-01-19T05:39:23.618Z,965.63
2017-01-19T05:40:23.627Z,965.69
2017-01-19T05:41:23.634Z,965.66
2017-01-19T05:42:23.643Z,965.66
2017-01-19T05:43:23.651Z,965.68
2017-01-19T05:44:23.659Z,965.64
2017-01-19T05:45:23.668Z,965.67
2017-01-19T05:46:23.675Z,965.65
2017-01-19T05:47:23.683Z,965.67
2017-01-19T05:48:23.690Z,965.67
2017-01-19T05:49:23.701Z,965.62
2017-01-19T05:50:23.708Z,965.61
2017-01-19T05:51:23.715Z,965.64
2017-01-19T05:52:23.724Z,965.63
2017-01-19T05:53:23.731Z,965.63
2017-01-19T05:54:23.741Z,965.58
2017-01-19T05:55:23.748Z,965.64
2017-01-19T05:56:23.757Z,965.63
2017-01-19T05:57:23.764Z,965.59
2017-01-19T05:58:23.772Z,965.67
2017-01-19T05:59:23.780Z,965.68
2017-01-19T06:00:23.789Z,965.63
2017-01-19T06:01:23.847Z,965.66
2017-01-19T06:02:23.806Z,965.65
2017-01-19T06:03:23.813Z,965.69
2017-01-19T06:04:23.820Z,965.65
2017-01-19T06:05:23.829Z,965.7
2017-01-19T06:06:23.887Z,965.67
2017-01-19T06:07:23.845Z,965.66
2017-01-19T06:08:23.853Z,965.66
2017-01-19T06:09:23.860Z,965.72
2017-01-19T06:10:23.869Z,965.68
2017-01-19T06:11:23.877Z,965.68
2017-01-19T06:12:23.883Z,965.66
2017-01-19T06:13:23.893Z,965.73
2017-01-19T06:14:23.901Z,965.7
2017-01-19T06:15:23.910Z,965.71
2017-01-19T06:16:23.917Z,965.69
2017-01-19T06:17:23.924Z,965.68
2017-01-19T06:18:23.934Z,965.7
2017-01-19T06:19:23.942Z,965.73
2017-01-19T06:20:23.949Z,965.69
2017-01-19T06:21:23.957Z,965.69
2017-01-19T06:22:23.965Z,965.74
2017-01-19T06:23:23.973Z,965.69
2017-01-19T06:24:23.981Z,965.79
2017-01-19T06:25:23.989Z,965.78
2017-01-19T06:26:23.997Z,965.79
2017-01-19T06:27:24.004Z,965.79
2017-01-19T06:28:24.013Z,965.84
2017-01-19T06:29:24.021Z,965.84
2017-01-19T06:30:24.031Z,965.89
2017-01-19T06:31:24.037Z,965.91
2017-01-19T06:32:24.045Z,965.92
2017-01-19T06:33:24.052Z,965.9
2017-01-19T06:34:24.060Z,965.96
2017-01-19T06:35:24.071Z,965.93
2017-01-19T06:36:24.076Z,965.95
2017-01-19T06:37:24.083Z,965.94
2017-01-19T06:38:24.091Z,965.93
2017-01-19T06:39:24.099Z,965.92
2017-01-19T06:40:24.107Z,965.97
2017-01-19T06:41:24.114Z,965.94
2017-01-19T06:42:24.122Z,965.98
2017-01-19T06:43:24.129Z,965.96
2017-01-19T06:44:24.139Z,965.94
2017-01-19T06:45:24.145Z,965.93
2017-01-19T06:46:24.152Z,965.96
2017-01-19T06:47:24.160Z,965.99
2017-01-19T06:48:24.169Z,966
2017-01-19T06:49:24.175Z,966.01
2017-01-19T06:50:24.184Z,966.01
2017-01-19T06:51:24.198Z,966
2017-01-19T06:52:24.197Z,966.08
2017-01-19T06:53:24.206Z,966.05
2017-01-19T06:54:24.214Z,966.04
2017-01-19T06:55:24.221Z,966.04
2017-01-19T06:56:24.229Z,965.98
2017-01-19T06:57:24.237Z,965.98
2017-01-19T06:58:24.248Z,965.95
2017-01-19T06:59:24.253Z,965.95
2017-01-19T07:00:24.259Z,965.94
2017-01-19T07:01:24.267Z,965.93
2017-01-19T07:02:24.276Z,965.92
2017-01-19T07:03:24.333Z,965.93
2017-01-19T07:04:24.290Z,965.91
2017-01-19T07:05:24.315Z,965.9
2017-01-19T07:06:24.305Z,965.92
2017-01-19T07:07:24.313Z,965.95
2017-01-19T07:08:24.370Z,965.95
2017-01-19T07:09:24.328Z,965.98
2017-01-19T07:10:24.338Z,966
2017-01-19T07:11:24.345Z,966.03
2017-01-19T07:12:24.353Z,966.01
2017-01-19T07:13:24.361Z,966.03
2017-01-19T07:14:24.367Z,966.04
2017-01-19T07:15:24.375Z,966.04
2017-01-19T07:16:24.383Z,966.04
2017-01-19T07:17:24.391Z,966.02
2017-01-19T07:18:24.399Z,966.11
2017-01-19T07:19:24.406Z,966.05
2017-01-19T07:20:24.414Z,966.08
2017-01-19T07:21:24.422Z,966.12
2017-01-19T07:22:24.429Z,966.08
2017-01-19T07:23:24.437Z,966.09
2017-01-19T07:24:24.449Z,966.08
2017-01-19T07:25:24.452Z,966.08
2017-01-19T07:26:24.460Z,966.07
2017-01-19T07:27:24.467Z,966.04
2017-01-19T07:28:24.475Z,966.08
2017-01-19T07:29:24.483Z,966.08
2017-01-19T07:30:24.692Z,966.08
2017-01-19T07:31:24.498Z,966.1
2017-01-19T07:32:24.507Z,966.14
2017-01-19T07:33:24.513Z,966.14
2017-01-19T07:34:24.521Z,966.13
2017-01-19T07:35:24.529Z,966.16
2017-01-19T07:36:24.535Z,966.12
2017-01-19T07:37:24.592Z,966.12
2017-01-19T07:38:24.551Z,966.11
2017-01-19T07:39:24.558Z,966.13
2017-01-19T07:40:24.564Z,966.16
2017-01-19T07:41:24.572Z,966.14
2017-01-19T07:42:24.580Z,966.15
2017-01-19T07:43:24.588Z,966.23
2017-01-19T07:44:24.595Z,966.25
2017-01-19T07:45:24.602Z,966.22
2017-01-19T07:46:24.610Z,966.23
2017-01-19T07:47:24.668Z,966.22
2017-01-19T07:48:24.626Z,966.21
2017-01-19T07:49:24.631Z,966.21
2017-01-19T07:50:24.640Z,966.24
2017-01-19T07:51:24.647Z,966.26
2017-01-19T07:52:24.655Z,966.28
2017-01-19T07:53:24.664Z,966.27
2017-01-19T07:54:24.670Z,966.25
2017-01-19T07:55:24.677Z,966.27
2017-01-19T07:56:24.685Z,966.26
2017-01-19T07:57:24.695Z,966.23
2017-01-19T07:58:24.699Z,966.24
2017-01-19T07:59:24.708Z,966.26
2017-01-19T08:00:24.822Z,966.23
2017-01-19T08:01:24.723Z,966.21
2017-01-19T08:02:24.729Z,966.22
2017-01-19T08:03:24.737Z,966.21
2017-01-19T08:04:24.745Z,966.26
2017-01-19T08:05:24.804Z,966.26
2017-01-19T08:06:24.761Z,966.3
2017-01-19T08:07:24.769Z,966.38
2017-01-19T08:08:24.778Z,966.33
2017-01-19T08:09:24.783Z,966.33
2017-01-19T08:10:24.841Z,966.34
2017-01-19T08:11:24.799Z,966.34
2017-01-19T08:12:24.810Z,966.37
2017-01-19T08:13:24.814Z,966.35
2017-01-19T08:14:24.831Z,966.4
2017-01-19T08:15:24.829Z,966.42
2017-01-19T08:16:24.836Z,966.37
2017-01-19T08:17:24.843Z,966.39
2017-01-19T08:18:24.851Z,966.41
2017-01-19T08:19:24.858Z,966.42
2017-01-19T08:20:24.866Z,966.42
2017-01-19T08:21:24.877Z,966.43
2017-01-19T08:22:24.882Z,966.41
2017-01-19T08:23:24.890Z,966.39
2017-01-19T08:24:24.896Z,966.44
2017-01-19T08:25:24.904Z,966.42
2017-01-19T08:26:24.911Z,966.41
2017-01-19T08:27:24.919Z,966.42
2017-01-19T08:28:24.941Z,966.39
2017-01-19T08:29:24.935Z,966.41
2017-01-19T08:30:24.942Z,966.44
2017-01-19T08:31:24.950Z,966.47
2017-01-19T08:32:24.957Z,966.46
2017-01-19T08:33:24.966Z,966.42
2017-01-19T08:34:24.974Z,966.41
2017-01-19T08:35:24.981Z,966.46
2017-01-19T08:36:24.989Z,966.45
2017-01-19T08:37:24.997Z,966.48
2017-01-19T08:38:25.012Z,966.44
2017-01-19T08:39:25.009Z,966.43
2017-01-19T08:40:25.019Z,966.43
2017-01-19T08:41:25.077Z,966.45
2017-01-19T08:42:25.033Z,966.42
2017-01-19T08:43:25.042Z,966.47
2017-01-19T08:44:25.050Z,966.5
2017-01-19T08:45:25.058Z,966.52
2017-01-19T08:46:25.115Z,966.53
2017-01-19T08:47:25.073Z,966.55
2017-01-19T08:48:25.080Z,966.5
2017-01-19T08:49:25.088Z,966.47
2017-01-19T08:50:25.096Z,966.47
2017-01-19T08:51:25.154Z,966.48
2017-01-19T08:52:25.112Z,966.47
2017-01-19T08:53:25.119Z,966.45
2017-01-19T08:54:25.125Z,966.46
2017-01-19T08:55:25.135Z,966.44
2017-01-19T08:56:25.143Z,966.46
2017-01-19T08:57:25.199Z,966.47
2017-01-19T08:58:25.158Z,966.46
2017-01-19T08:59:25.166Z,966.4
2017-01-19T09:00:25.173Z,966.4
2017-01-19T09:01:25.181Z,966.41
2017-01-19T09:02:25.238Z,966.42
2017-01-19T09:03:25.197Z,966.4
2017-01-19T09:04:25.204Z,966.39
2017-01-19T09:05:25.212Z,966.4
2017-01-19T09:06:25.220Z,966.39
2017-01-19T09:07:25.277Z,966.36
2017-01-19T09:08:25.235Z,966.4
2017-01-19T09:09:25.243Z,966.35
2017-01-19T09:10:25.250Z,966.37
2017-01-19T09:11:25.258Z,966.38
2017-01-19T09:12:25.266Z,966.34
2017-01-19T09:13:25.273Z,966.38
2017-01-19T09:14:25.282Z,966.37
2017-01-19T09:15:25.289Z,966.39
2017-01-19T09:16:25.296Z,966.39
2017-01-19T09:17:25.304Z,966.35
2017-01-19T09:18:25.314Z,966.42
2017-01-19T09:19:25.321Z,966.45
2017-01-19T09:20:25.329Z,966.4
2017-01-19T09:21:25.336Z,966.36
2017-01-19T09:22:25.344Z,966.42
2017-01-19T09:23:25.402Z,966.39
2017-01-19T09:24:25.360Z,966.45
2017-01-19T09:25:25.369Z,966.36
2017-01-19T09:26:25.377Z,966.38
2017-01-19T09:27:25.383Z,966.37
2017-01-19T09:28:25.393Z,966.46
2017-01-19T09:29:25.601Z,966.47
2017-01-19T09:30:25.407Z,966.45
2017-01-19T09:31:25.415Z,966.45
2017-01-19T09:32:25.423Z,966.37
2017-01-19T09:33:25.431Z,966.36
2017-01-19T09:34:25.439Z,966.41
2017-01-19T09:35:25.448Z,966.46
2017-01-19T09:36:25.457Z,966.42
2017-01-19T09:37:25.463Z,966.43
2017-01-19T09:38:25.471Z,966.42
2017-01-19T09:39:25.480Z,966.46
2017-01-19T09:40:25.488Z,966.48
2017-01-19T09:41:25.497Z,966.45
2017-01-19T09:42:25.505Z,966.5
2017-01-19T09:43:25.513Z,966.45
2017-01-19T09:44:25.522Z,966.47
2017-01-19T09:45:25.529Z,966.44
2017-01-19T09:46:25.537Z,966.45
2017-01-19T09:47:25.546Z,966.45
2017-01-19T09:48:25.554Z,966.44
2017-01-19T09:49:25.562Z,966.48
2017-01-19T09:50:25.570Z,966.45
2017-01-19T09:51:25.584Z,966.49
2017-01-19T09:52:25.586Z,966.45
2017-01-19T09:53:25.595Z,966.47
2017-01-19T09:54:25.603Z,966.47
2017-01-19T09:55:25.611Z,966.49
2017-01-19T09:56:25.619Z,966.51
2017-01-19T09:57:25.628Z,966.49
2017-01-19T09:58:25.638Z,966.51
2017-01-19T09:59:25.643Z,966.51
2017-01-19T10:00:25.652Z,966.55
2017-01-19T10:01:25.659Z,966.53
2017-01-19T10:02:25.668Z,966.51
2017-01-19T10:03:25.680Z,966.48
2017-01-19T10:04:25.685Z,966.53
2017-01-19T10:05:25.699Z,966.48
2017-01-19T10:06:25.702Z,966.48
2017-01-19T10:07:25.710Z,966.49
2017-01-19T10:08:25.718Z,966.51
2017-01-19T10:09:25.727Z,966.42
2017-01-19T10:10:25.736Z,966.5
2017-01-19T10:11:25.743Z,966.47
2017-01-19T10:12:25.766Z,966.46
2017-01-19T10:13:25.759Z,966.42
2017-01-19T10:14:25.767Z,966.42
2017-01-19T10:15:25.776Z,966.43
2017-01-19T10:16:25.786Z,966.38
2017-01-19T10:17:25.792Z,966.4
2017-01-19T10:18:25.803Z,966.42
2017-01-19T10:19:25.831Z,966.35
2017-01-19T10:20:25.818Z,966.32
2017-01-19T10:21:25.826Z,966.27
2017-01-19T10:22:25.885Z,966.3
2017-01-19T10:23:25.844Z,966.27
2017-01-19T10:24:25.851Z,966.21
2017-01-19T10:25:25.860Z,966.28
2017-01-19T10:26:25.871Z,966.19
2017-01-19T10:27:25.928Z,966.22
2017-01-19T10:28:25.885Z,966.19
2017-01-19T10:29:25.894Z,966.18
2017-01-19T10:30:25.904Z,966.17
2017-01-19T10:31:25.912Z,966.18
2017-01-19T10:32:25.969Z,966.21
2017-01-19T10:33:25.928Z,966.22
2017-01-19T10:34:25.935Z,966.23
2017-01-19T10:35:25.947Z,966.18
2017-01-19T10:36:25.952Z,966.23
2017-01-19T10:37:26.012Z,966.23
2017-01-19T10:38:25.970Z,966.21
2017-01-19T10:39:25.979Z,966.23
2017-01-19T10:40:25.987Z,966.24
2017-01-19T10:41:25.995Z,966.23
2017-01-19T10:42:26.055Z,966.26
2017-01-19T10:43:26.012Z,966.26
2017-01-19T10:44:26.022Z,966.22
2017-01-19T10:45:26.030Z,966.28
2017-01-19T10:46:26.038Z,966.29
2017-01-19T10:47:26.047Z,966.25
2017-01-19T10:48:26.056Z,966.3
2017-01-19T10:49:26.065Z,966.26
2017-01-19T10:50:26.073Z,966.23
2017-01-19T10:51:26.082Z,966.27
2017-01-19T10:52:26.091Z,966.27
2017-01-19T10:53:26.101Z,966.23
2017-01-19T10:54:26.112Z,966.21
2017-01-19T10:55:26.118Z,966.28
2017-01-19T10:56:26.141Z,966.29
2017-01-19T10:57:26.184Z,966.28
2017-01-19T10:58:26.144Z,966.28
2017-01-19T10:59:26.152Z,966.22
2017-01-19T11:00:26.162Z,966.25
2017-01-19T11:01:26.169Z,966.24
2017-01-19T11:02:26.179Z,966.22
2017-01-19T11:03:26.191Z,966.21
2017-01-19T11:04:26.207Z,966.23
2017-01-19T11:05:26.205Z,966.2
2017-01-19T11:06:26.212Z,966.23
2017-01-19T11:07:26.224Z,966.25
2017-01-19T11:08:26.233Z,966.21
2017-01-19T11:09:26.343Z,966.2
2017-01-19T11:10:26.251Z,966.18
2017-01-19T11:11:26.261Z,966.18
2017-01-19T11:12:26.291Z,966.28
2017-01-19T11:13:26.296Z,966.18
2017-01-19T11:14:26.335Z,966.24
2017-01-19T11:15:26.320Z,966.21
2017-01-19T11:16:26.308Z,966.18
2017-01-19T11:17:26.314Z,966.25
2017-01-19T11:18:26.353Z,966.23
2017-01-19T11:19:26.395Z,966.14
2017-01-19T11:20:26.341Z,966.16
2017-01-19T11:21:26.351Z,966.17
2017-01-19T11:22:26.368Z,966.16
2017-01-19T11:23:26.398Z,966.1
2017-01-19T11:24:26.406Z,966.14
2017-01-19T11:25:26.420Z,966.11
2017-01-19T11:26:26.449Z,966.1
2017-01-19T11:27:26.428Z,966.14
2017-01-19T11:28:26.428Z,966.13
2017-01-19T11:29:26.427Z,966.14
2017-01-19T11:30:26.468Z,966.11
2017-01-19T11:31:26.527Z,966.09
2017-01-19T11:32:26.475Z,966.09
2017-01-19T11:33:26.488Z,966.11
2017-01-19T11:34:26.481Z,966.05
2017-01-19T11:35:26.486Z,966.05
2017-01-19T11:36:26.508Z,966.07
2017-01-19T11:37:26.564Z,966.07
2017-01-19T11:38:26.516Z,966.14
2017-01-19T11:39:26.532Z,966.1
2017-01-19T11:40:26.559Z,966.13
2017-01-19T11:41:26.547Z,966.1
2017-01-19T11:42:26.588Z,966.15
2017-01-19T11:43:26.570Z,966.13
2017-01-19T11:44:26.587Z,966.07
2017-01-19T11:45:26.592Z,966.11
2017-01-19T11:46:26.597Z,966.11
2017-01-19T11:47:26.661Z,966.03
2017-01-19T11:48:26.651Z,966.07
2017-01-19T11:49:26.633Z,966.06
2017-01-19T11:50:26.669Z,966.01
2017-01-19T11:51:26.652Z,966.04
2017-01-19T11:52:26.713Z,966.03
2017-01-19T11:53:26.679Z,966.02
2017-01-19T11:54:26.692Z,966.01
2017-01-19T11:55:26.714Z,965.99
2017-01-19T11:56:26.757Z,965.99
2017-01-19T11:57:26.721Z,966
2017-01-19T11:58:26.731Z,966.02
2017-01-19T11:59:26.742Z,965.94
2017-01-19T12:00:26.759Z,965.92
2017-01-19T12:01:26.849Z,965.94
2017-01-19T12:02:26.792Z,965.95
2017-01-19T12:03:26.791Z,966.03
2017-01-19T12:04:26.840Z,965.99
2017-01-19T12:05:26.813Z,965.98
2017-01-19T12:06:26.873Z,965.98
2017-01-19T12:07:26.833Z,966.02
2017-01-19T12:08:26.852Z,965.99
2017-01-19T12:09:26.867Z,965.94
2017-01-19T12:10:26.869Z,965.98
2017-01-19T12:11:26.891Z,965.93
2017-01-19T12:12:26.893Z,965.92
2017-01-19T12:13:26.929Z,965.91
2017-01-19T12:14:26.916Z,965.87
2017-01-19T12:15:26.937Z,965.84
2017-01-19T12:16:27.242Z,965.88
2017-01-19T12:17:26.956Z,965.88
2017-01-19T12:18:26.974Z,965.84
2017-01-19T12:19:26.979Z,965.85
2017-01-19T12:20:26.990Z,965.86
2017-01-19T12:21:27.051Z,965.84
2017-01-19T12:22:27.028Z,965.84
2017-01-19T12:23:27.025Z,965.81
2017-01-19T12:24:27.045Z,965.81
2017-01-19T12:25:27.084Z,965.78
2017-01-19T12:26:27.062Z,965.8
2017-01-19T12:27:27.074Z,965.79
2017-01-19T12:28:27.087Z,965.77
2017-01-19T12:29:27.100Z,965.7
2017-01-19T12:30:27.109Z,965.75